createdAt,value
2023-11-17T00:01:51.078Z,99658.47
2023-11-17T00:04:54.031Z,99661.16
2023-11-17T00:07:56.554Z,99658.38
2023-11-17T00:10:59.290Z,99652.25
2023-11-17T00:14:01.784Z,99647.88
2023-11-17T00:17:04.556Z,99649.53
2023-11-17T00:20:07.953Z,99648.56
2023-11-17T00:23:10.340Z,99644.16
2023-11-17T00:26:13.071Z,99653.81
2023-11-17T00:29:15.565Z,99640.75
2023-11-17T00:32:18.090Z,99636.34
2023-11-17T00:35:21.866Z,99633.72
2023-11-17T00:38:25.394Z,99644.16
2023-11-17T00:41:30.691Z,99632.88
2023-11-17T00:44:34.350Z,99637.34
2023-11-17T00:47:37.294Z,99629.53
2023-11-17T00:50:39.696Z,99626.91
2023-11-17T00:53:42.259Z,99619.06
2023-11-17T00:56:44.657Z,99606.97
2023-11-17T00:59:47.096Z,99610.59
2023-11-17T01:02:50.096Z,99604.56
2023-11-17T01:05:56.342Z,99598.34
2023-11-17T01:08:58.861Z,99604.44
2023-11-17T01:12:01.295Z,99596.72
2023-11-17T01:15:05.212Z,99590.72
2023-11-17T01:18:08.488Z,99591.50
2023-11-17T01:21:12.097Z,99577.53
2023-11-17T01:24:14.459Z,99571.47
2023-11-17T01:27:17.360Z,99570.56
2023-11-17T01:30:22.312Z,99561.78
2023-11-17T01:33:26.079Z,99553.97
2023-11-17T01:36:28.519Z,99547.88
2023-11-17T01:39:31.192Z,99539.06
2023-11-17T01:42:38.433Z,99530.25
2023-11-17T01:45:41.215Z,99534.50
2023-11-17T01:48:44.629Z,99531.00
2023-11-17T01:51:47.635Z,99525.78
2023-11-17T01:54:51.902Z,99527.28
2023-11-17T01:57:54.354Z,99521.19
2023-11-17T02:00:57.314Z,99520.09
2023-11-17T02:04:00.433Z,99517.41
2023-11-17T02:07:03.553Z,99506.81
2023-11-17T02:10:36.392Z,99508.63
2023-11-17T02:13:39.995Z,99500.94
2023-11-17T02:16:43.641Z,99497.34
2023-11-17T02:19:46.647Z,99487.78
2023-11-17T02:22:50.204Z,99485.19
2023-11-17T02:26:18.782Z,99478.41
2023-11-17T02:29:40.305Z,99474.94
2023-11-17T02:32:42.809Z,99468.81
2023-11-17T02:35:45.289Z,99459.22
2023-11-17T02:39:14.078Z,99462.66
2023-11-17T02:42:25.139Z,99460.97
2023-11-17T02:45:27.572Z,99447.06
2023-11-17T02:48:31.040Z,99451.41
2023-11-17T02:51:44.927Z,99447.06
2023-11-17T02:54:48.174Z,99446.19
2023-11-17T02:57:50.683Z,99432.22
2023-11-17T03:00:53.368Z,99428.81
2023-11-17T03:03:57.023Z,99430.44
2023-11-17T03:07:03.410Z,99425.28
2023-11-17T03:10:06.640Z,99420.94
2023-11-17T03:13:15.139Z,99425.28
2023-11-17T03:16:25.106Z,99413.13
2023-11-17T03:19:28.682Z,99409.69
2023-11-17T03:22:31.158Z,99407.06
2023-11-17T03:25:39.996Z,99400.94
2023-11-17T03:28:44.036Z,99399.19
2023-11-17T03:31:50.545Z,99392.97
2023-11-17T03:34:53.980Z,99392.19
2023-11-17T03:37:57.085Z,99385.22
2023-11-17T03:41:01.015Z,99374.78
2023-11-17T03:44:03.505Z,99375.69
2023-11-17T03:47:08.183Z,99382.63
2023-11-17T03:50:15.266Z,99368.75
2023-11-17T03:53:17.944Z,99366.13
2023-11-17T03:56:21.477Z,99366.97
2023-11-17T03:59:24.029Z,99350.34
2023-11-17T04:02:27.713Z,99340.78
2023-11-17T04:05:33.924Z,99345.00
2023-11-17T04:08:36.324Z,99350.16
2023-11-17T04:11:41.190Z,99350.88
2023-11-17T04:14:43.844Z,99339.44
2023-11-17T04:17:46.350Z,99337.56
2023-11-17T04:20:49.490Z,99352.28
2023-11-17T04:23:51.966Z,99352.19
2023-11-17T04:26:54.450Z,99351.25
2023-11-17T04:29:57.534Z,99352.88
2023-11-17T04:32:59.988Z,99345.66
2023-11-17T04:36:02.742Z,99349.00
2023-11-17T04:39:13.132Z,99355.94
2023-11-17T04:42:15.689Z,99353.16
2023-11-17T04:45:19.162Z,99353.00
2023-11-17T04:48:21.877Z,99359.09
2023-11-17T04:51:24.218Z,99365.81
2023-11-17T04:54:27.552Z,99361.47
2023-11-17T04:57:29.963Z,99363.19
2023-11-17T05:00:35.405Z,99351.81
2023-11-17T05:03:40.267Z,99355.41
2023-11-17T05:06:43.566Z,99350.31
2023-11-17T05:09:45.916Z,99349.59
2023-11-17T05:12:49.205Z,99352.31
2023-11-17T05:15:51.713Z,99347.13
2023-11-17T05:18:54.190Z,99353.31
2023-11-17T05:21:56.667Z,99356.00
2023-11-17T05:25:00.242Z,99343.09
2023-11-17T05:28:02.814Z,99343.22
2023-11-17T05:31:05.359Z,99350.19
2023-11-17T05:34:10.255Z,99352.81
2023-11-17T05:37:12.752Z,99347.56
2023-11-17T05:40:15.747Z,99346.69
2023-11-17T05:43:19.460Z,99346.78
2023-11-17T05:46:22.066Z,99356.38
2023-11-17T05:49:24.706Z,99354.69
2023-11-17T05:52:27.179Z,99350.31
2023-11-17T05:55:29.906Z,99359.91
2023-11-17T05:58:32.398Z,99362.56
2023-11-17T06:01:36.420Z,99353.94
2023-11-17T06:04:39.000Z,99361.75
2023-11-17T06:07:41.489Z,99363.59
2023-11-17T06:10:43.888Z,99363.63
2023-11-17T06:13:46.920Z,99368.06
2023-11-17T06:16:53.131Z,99366.38
2023-11-17T06:19:55.621Z,99367.34
2023-11-17T06:22:59.024Z,99363.00
2023-11-17T06:26:01.447Z,99370.00
2023-11-17T06:29:04.109Z,99364.03
2023-11-17T06:32:07.579Z,99359.69
2023-11-17T06:35:10.378Z,99356.31
2023-11-17T06:38:14.766Z,99364.19
2023-11-17T06:41:17.317Z,99375.56
2023-11-17T06:44:20.965Z,99364.34
2023-11-17T06:47:24.975Z,99361.66
2023-11-17T06:50:27.474Z,99361.66
2023-11-17T06:53:30.453Z,99360.91
2023-11-17T06:56:33.067Z,99371.41
2023-11-17T06:59:35.811Z,99369.72
2023-11-17T07:02:38.429Z,99377.59
2023-11-17T07:05:42.304Z,99372.97
2023-11-17T07:08:44.778Z,99389.41
2023-11-17T07:11:48.447Z,99380.72
2023-11-17T07:14:50.868Z,99382.19
2023-11-17T07:17:55.030Z,99366.63
2023-11-17T07:20:57.489Z,99379.03
2023-11-17T07:23:59.960Z,99380.09
2023-11-17T07:27:03.007Z,99373.75
2023-11-17T07:30:09.043Z,99373.13
2023-11-17T07:33:12.238Z,99371.34
2023-11-17T07:36:19.769Z,99360.22
2023-11-17T07:39:24.653Z,99369.91
2023-11-17T07:42:27.429Z,99363.84
2023-11-17T07:45:29.879Z,99366.59
2023-11-17T07:48:39.110Z,99371.31
2023-11-17T07:51:49.046Z,99373.16
2023-11-17T07:54:52.141Z,99366.50
2023-11-17T07:57:57.665Z,99369.63
2023-11-17T08:01:00.184Z,99377.81
2023-11-17T08:04:02.870Z,99378.75
2023-11-17T08:07:06.415Z,99391.03
2023-11-17T08:10:10.591Z,99391.72
2023-11-17T08:13:13.418Z,99391.03
2023-11-17T08:16:15.904Z,99397.22
2023-11-17T08:19:24.940Z,99396.84
2023-11-17T08:22:31.382Z,99393.56
2023-11-17T08:25:33.886Z,99385.81
2023-11-17T08:28:36.458Z,99396.75
2023-11-17T08:31:38.923Z,99387.44
2023-11-17T08:34:41.552Z,99392.97
2023-11-17T08:37:44.014Z,99402.97
2023-11-17T08:40:46.441Z,99401.06
2023-11-17T08:43:50.189Z,99399.75
2023-11-17T08:46:53.731Z,99416.28
2023-11-17T08:49:59.625Z,99422.25
2023-11-17T08:53:05.390Z,99422.91
2023-11-17T08:56:08.079Z,99423.38
2023-11-17T08:59:11.577Z,99433.44
2023-11-17T09:02:15.775Z,99436.13
2023-11-17T09:05:18.966Z,99446.44
2023-11-17T09:08:22.077Z,99444.72
2023-11-17T09:11:26.811Z,99445.63
2023-11-17T09:14:32.475Z,99451.78
2023-11-17T09:17:41.825Z,99446.44
2023-11-17T09:20:44.276Z,99446.53
2023-11-17T09:23:46.791Z,99449.16
2023-11-17T09:26:49.395Z,99454.28
2023-11-17T09:29:52.144Z,99453.41
2023-11-17T09:32:57.042Z,99464.56
2023-11-17T09:36:01.844Z,99467.19
2023-11-17T09:39:07.411Z,99462.69
2023-11-17T09:42:09.929Z,99458.97
2023-11-17T09:45:12.359Z,99470.13
2023-11-17T09:48:15.479Z,99460.44
2023-11-17T09:51:20.082Z,99466.53
2023-11-17T09:54:25.680Z,99466.72
2023-11-17T09:57:28.541Z,99457.19
2023-11-17T10:00:32.791Z,99454.75
2023-11-17T10:03:35.707Z,99463.56
2023-11-17T10:06:39.240Z,99458.63
2023-11-17T10:09:43.073Z,99456.25
2023-11-17T10:12:45.794Z,99448.44
2023-11-17T10:15:52.714Z,99449.59
2023-11-17T10:18:56.909Z,99452.00
2023-11-17T10:21:59.612Z,99448.75
2023-11-17T10:25:02.341Z,99443.66
2023-11-17T10:28:05.079Z,99442.97
2023-11-17T10:31:08.053Z,99439.59
2023-11-17T10:34:18.196Z,99432.66
2023-11-17T10:37:20.938Z,99419.28
2023-11-17T10:40:27.625Z,99428.06
2023-11-17T10:43:30.216Z,99426.22
2023-11-17T10:46:45.720Z,99425.41
2023-11-17T10:49:54.027Z,99425.63
2023-11-17T10:53:00.056Z,99433.72
2023-11-17T10:56:02.432Z,99426.03
2023-11-17T10:59:06.090Z,99431.16
2023-11-17T11:02:10.645Z,99435.34
2023-11-17T11:05:13.149Z,99435.06
2023-11-17T11:08:19.693Z,99437.59
2023-11-17T11:11:25.107Z,99442.66
2023-11-17T11:14:28.469Z,99446.06
2023-11-17T11:17:34.044Z,99440.59
2023-11-17T11:20:36.647Z,99442.28
2023-11-17T11:23:39.159Z,99446.66
2023-11-17T11:26:41.558Z,99445.06
2023-11-17T11:29:44.087Z,99442.59
2023-11-17T11:32:46.692Z,99437.09
2023-11-17T11:35:49.609Z,99448.34
2023-11-17T11:38:52.208Z,99454.53
2023-11-17T11:41:54.749Z,99466.81
2023-11-17T11:44:57.194Z,99461.75
2023-11-17T11:48:01.786Z,99470.50
2023-11-17T11:51:13.401Z,99470.53
2023-11-17T11:54:16.264Z,99479.63
2023-11-17T11:57:29.771Z,99496.13
2023-11-17T12:00:32.893Z,99484.72
2023-11-17T12:03:36.284Z,99493.41
2023-11-17T12:06:44.360Z,99481.25
2023-11-17T12:09:49.614Z,99499.44
2023-11-17T12:12:56.948Z,99497.53
2023-11-17T12:15:59.545Z,99494.00
2023-11-17T12:19:02.547Z,99501.84
2023-11-17T12:22:05.397Z,99513.75
2023-11-17T12:25:12.475Z,99520.44
2023-11-17T12:28:15.335Z,99509.78
2023-11-17T12:31:18.356Z,99521.03
2023-11-17T12:34:21.245Z,99532.13
2023-11-17T12:37:23.818Z,99527.53
2023-11-17T12:40:29.763Z,99534.47
2023-11-17T12:43:32.621Z,99545.84
2023-11-17T12:46:36.619Z,99557.97
2023-11-17T12:49:52.990Z,99573.50
2023-11-17T12:53:07.667Z,99566.50
2023-11-17T12:56:11.776Z,99568.88
2023-11-17T12:59:14.355Z,99580.13
2023-11-17T13:02:16.891Z,99572.94
2023-11-17T13:05:19.966Z,99588.44
2023-11-17T13:08:22.492Z,99592.53
2023-11-17T13:11:34.369Z,99590.78
2023-11-17T13:14:37.290Z,99591.41
2023-11-17T13:17:39.887Z,99593.97
2023-11-17T13:20:42.395Z,99598.81
2023-11-17T13:23:45.679Z,99601.06
2023-11-17T13:26:48.417Z,99599.28
2023-11-17T13:29:50.887Z,99615.03
2023-11-17T13:33:03.192Z,99618.13
2023-11-17T13:36:06.469Z,99616.34
2023-11-17T13:39:17.338Z,99617.88
2023-11-17T13:42:20.415Z,99617.78
2023-11-17T13:45:23.637Z,99625.53
2023-11-17T13:48:26.672Z,99626.41
2023-11-17T13:51:30.599Z,99630.69
2023-11-17T13:54:35.510Z,99628.97
2023-11-17T13:57:38.230Z,99639.94
2023-11-17T14:00:43.982Z,99642.53
2023-11-17T14:03:47.426Z,99642.31
2023-11-17T14:06:50.248Z,99663.09
2023-11-17T14:09:53.712Z,99670.13
2023-11-17T14:12:56.059Z,99664.81
2023-11-17T14:15:59.344Z,99672.41
2023-11-17T14:19:01.803Z,99673.28
2023-11-17T14:22:08.166Z,99677.44
2023-11-17T14:25:11.146Z,99686.78
2023-11-17T14:28:16.729Z,99680.59
2023-11-17T14:31:21.229Z,99685.69
2023-11-17T14:34:24.064Z,99701.34
2023-11-17T14:37:30.178Z,99708.47
2023-11-17T14:40:32.711Z,99711.00
2023-11-17T14:43:35.227Z,99719.75
2023-11-17T14:46:37.784Z,99722.41
2023-11-17T14:49:41.206Z,99725.84
2023-11-17T14:52:44.166Z,99727.72
2023-11-17T14:55:46.631Z,99726.59
2023-11-17T14:58:49.227Z,99743.00
2023-11-17T15:01:51.824Z,99744.94
2023-11-17T15:04:57.045Z,99729.50
2023-11-17T15:07:59.578Z,99740.84
2023-11-17T15:11:02.708Z,99745.16
2023-11-17T15:14:07.949Z,99748.59
2023-11-17T15:17:16.110Z,99744.16
2023-11-17T15:20:19.652Z,99748.53
2023-11-17T15:23:22.019Z,99763.25
2023-11-17T15:26:28.934Z,99769.94
2023-11-17T15:29:32.241Z,99770.69
2023-11-17T15:32:35.139Z,99759.47
2023-11-17T15:35:37.855Z,99773.31
2023-11-17T15:38:44.403Z,99773.19
2023-11-17T15:41:48.012Z,99783.47
2023-11-17T15:44:50.941Z,99778.31
2023-11-17T15:47:53.872Z,99788.03
2023-11-17T15:50:56.749Z,99798.44
2023-11-17T15:53:59.166Z,99801.94
2023-11-17T15:57:02.120Z,99807.59
2023-11-17T16:00:05.199Z,99816.47
2023-11-17T16:03:08.020Z,99818.25
2023-11-17T16:06:11.628Z,99825.16
2023-11-17T16:09:14.801Z,99831.00
2023-11-17T16:12:17.298Z,99846.78
2023-11-17T16:15:20.178Z,99844.78
2023-11-17T16:18:22.590Z,99856.13
2023-11-17T16:21:24.942Z,99849.19
2023-11-17T16:24:28.281Z,99859.34
2023-11-17T16:27:30.855Z,99862.66
2023-11-17T16:30:33.277Z,99889.41
2023-11-17T16:33:39.212Z,99890.19
2023-11-17T16:36:47.149Z,99881.31
2023-11-17T16:39:49.843Z,99888.34
2023-11-17T16:43:09.489Z,99900.44
2023-11-17T16:46:12.793Z,99914.13
2023-11-17T16:49:15.538Z,99902.91
2023-11-17T16:52:19.584Z,99911.41
2023-11-17T16:55:22.720Z,99915.72
2023-11-17T16:58:25.278Z,99924.19
2023-11-17T17:01:28.682Z,99929.81
2023-11-17T17:04:31.306Z,99931.41
2023-11-17T17:07:35.095Z,99940.13
2023-11-17T17:10:38.272Z,99941.72
2023-11-17T17:13:41.552Z,99946.50
2023-11-17T17:16:44.198Z,99956.78
2023-11-17T17:19:46.680Z,99951.41
2023-11-17T17:22:53.998Z,99945.25
2023-11-17T17:25:56.965Z,99957.06
2023-11-17T17:28:59.526Z,99962.84
2023-11-17T17:32:02.096Z,99963.06
2023-11-17T17:35:05.926Z,99968.13
2023-11-17T17:38:12.594Z,99966.94
2023-11-17T17:41:20.562Z,99973.69
2023-11-17T17:44:25.115Z,99969.84
2023-11-17T17:47:28.645Z,99968.94
2023-11-17T17:50:31.582Z,99981.78
2023-11-17T17:53:34.560Z,99997.25
2023-11-17T17:56:38.019Z,99993.53
2023-11-17T17:59:40.530Z,99997.03
2023-11-17T18:02:44.244Z,100002.06
2023-11-17T18:05:46.778Z,100000.78
2023-11-17T18:08:49.282Z,100005.84
2023-11-17T18:11:53.962Z,100019.94
2023-11-17T18:14:57.147Z,100015.28
2023-11-17T18:18:01.624Z,100010.09
2023-11-17T18:21:06.729Z,99993.88
2023-11-17T18:24:10.861Z,100006.69
2023-11-17T18:27:13.261Z,100026.53
2023-11-17T18:30:16.655Z,100019.25
2023-11-17T18:33:19.162Z,100017.47
2023-11-17T18:36:21.798Z,100027.22
2023-11-17T18:39:28.979Z,100039.06
2023-11-17T18:42:33.550Z,100024.06
2023-11-17T18:45:36.089Z,100033.44
2023-11-17T18:48:41.312Z,100050.06
2023-11-17T18:51:43.936Z,100057.31
2023-11-17T18:54:50.269Z,100055.81
2023-11-17T18:57:52.748Z,100057.31
2023-11-17T19:00:56.782Z,100060.81
2023-11-17T19:03:59.643Z,100064.03
2023-11-17T19:07:02.604Z,100060.72
2023-11-17T19:10:10.911Z,100067.63
2023-11-17T19:13:14.316Z,100067.28
2023-11-17T19:16:18.080Z,100072.75
2023-11-17T19:19:20.584Z,100072.47
2023-11-17T19:22:22.995Z,100067.44
2023-11-17T19:25:25.605Z,100078.28
2023-11-17T19:28:28.158Z,100076.91
2023-11-17T19:31:30.610Z,100083.72
2023-11-17T19:34:33.197Z,100075.84
2023-11-17T19:37:35.721Z,100086.00
2023-11-17T19:40:38.189Z,100080.81
2023-11-17T19:43:42.662Z,100092.88
2023-11-17T19:46:45.633Z,100068.56
2023-11-17T19:49:48.465Z,100101.16
2023-11-17T19:52:51.633Z,100111.78
2023-11-17T19:55:59.221Z,100109.59
2023-11-17T19:59:03.954Z,100115.56
2023-11-17T20:02:07.472Z,100114.75
2023-11-17T20:05:16.022Z,100111.25
2023-11-17T20:08:21.301Z,100113.63
2023-11-17T20:11:23.672Z,100115.91
2023-11-17T20:14:27.045Z,100121.00
2023-11-17T20:17:41.687Z,100113.09
2023-11-17T20:20:52.007Z,100107.00
2023-11-17T20:23:57.020Z,100120.72
2023-11-17T20:27:00.730Z,100133.88
2023-11-17T20:30:04.037Z,100138.06
2023-11-17T20:33:06.587Z,100132.19
2023-11-17T20:36:17.894Z,100133.75
2023-11-17T20:39:20.495Z,100141.38
2023-11-17T20:42:23.816Z,100143.28
2023-11-17T20:45:28.035Z,100138.09
2023-11-17T20:48:30.470Z,100144.31
2023-11-17T20:51:33.172Z,100149.31
2023-11-17T20:54:39.083Z,100157.00
2023-11-17T20:57:42.248Z,100155.13
2023-11-17T21:00:48.266Z,100162.78
2023-11-17T21:03:50.946Z,100170.75
2023-11-17T21:06:57.005Z,100173.44
2023-11-17T21:09:59.619Z,100169.88
2023-11-17T21:13:04.675Z,100175.53
2023-11-17T21:16:08.908Z,100178.81
2023-11-17T21:19:11.664Z,100185.63
2023-11-17T21:22:15.179Z,100192.66
2023-11-17T21:25:20.155Z,100187.31
2023-11-17T21:28:27.304Z,100185.84
2023-11-17T21:31:38.542Z,100195.03
2023-11-17T21:34:41.020Z,100201.75
2023-11-17T21:37:46.610Z,100208.53
2023-11-17T21:40:49.058Z,100197.56
2023-11-17T21:43:52.586Z,100185.22
2023-11-17T21:46:56.522Z,100170.69
2023-11-17T21:49:59.411Z,100177.19
2023-11-17T21:53:04.581Z,100169.59
2023-11-17T21:56:08.450Z,100184.84
2023-11-17T21:59:10.792Z,100194.53
2023-11-17T22:02:14.656Z,100195.13
2023-11-17T22:05:21.222Z,100207.19
2023-11-17T22:08:25.005Z,100211.72
2023-11-17T22:11:27.406Z,100222.06
2023-11-17T22:14:29.896Z,100229.41
2023-11-17T22:17:32.374Z,100218.75
2023-11-17T22:20:34.867Z,100230.19
2023-11-17T22:23:37.328Z,100242.06
2023-11-17T22:26:42.944Z,100243.59
2023-11-17T22:29:45.913Z,100252.13
2023-11-17T22:32:49.326Z,100242.56
2023-11-17T22:35:52.148Z,100248.56
2023-11-17T22:38:54.520Z,100250.03
2023-11-17T22:41:56.937Z,100260.91
2023-11-17T22:44:59.455Z,100260.09
2023-11-17T22:48:02.037Z,100254.84
2023-11-17T22:51:04.918Z,100266.38
2023-11-17T22:54:07.553Z,100278.13
2023-11-17T22:57:10.162Z,100283.09
2023-11-17T23:00:36.179Z,100283.72
2023-11-17T23:03:38.776Z,100296.03
2023-11-17T23:06:41.354Z,100282.69
2023-11-17T23:09:44.100Z,100288.78
2023-11-17T23:12:48.270Z,100292.06
2023-11-17T23:15:50.545Z,100306.56
2023-11-17T23:18:53.156Z,100316.16
2023-11-17T23:21:56.139Z,100298.81
2023-11-17T23:24:58.560Z,100312.38
2023-11-17T23:28:01.981Z,100315.78
2023-11-17T23:31:15.454Z,100314.56
2023-11-17T23:34:19.090Z,100326.72
2023-11-17T23:37:21.480Z,100327.59
2023-11-17T23:40:24.402Z,100318.91
2023-11-17T23:43:26.957Z,100321.94
2023-11-17T23:46:29.426Z,100319.94
2023-11-17T23:49:33.872Z,100317.34
2023-11-17T23:52:37.838Z,100313.72
2023-11-17T23:55:40.334Z,100324.13
2023-11-17T23:58:42.818Z,100320.59
